createdAt,value
2022-08-25T00:02:15.300Z,23.00
2022-08-25T00:05:05.287Z,23.00
2022-08-25T00:07:52.200Z,23.00
2022-08-25T00:10:39.999Z,23.00
2022-08-25T00:13:25.889Z,23.00
2022-08-25T00:16:14.222Z,23.00
2022-08-25T00:19:04.348Z,22.90
2022-08-25T00:21:50.014Z,22.90
2022-08-25T00:24:36.230Z,22.90
2022-08-25T00:27:21.974Z,22.80
2022-08-25T00:30:08.569Z,22.80
2022-08-25T00:32:57.304Z,22.90
2022-08-25T00:35:43.333Z,22.80
2022-08-25T00:38:28.793Z,22.90
2022-08-25T00:41:20.555Z,22.80
2022-08-25T00:44:09.173Z,22.80
2022-08-25T00:46:58.457Z,22.80
2022-08-25T00:49:47.716Z,22.90
2022-08-25T00:52:43.029Z,22.80
2022-08-25T00:55:35.948Z,22.80
2022-08-25T00:58:27.957Z,22.80
2022-08-25T01:01:13.413Z,22.80
2022-08-25T01:03:59.150Z,22.80
2022-08-25T01:06:45.764Z,22.70
2022-08-25T01:09:32.944Z,22.70
2022-08-25T01:12:19.285Z,22.70
2022-08-25T01:15:07.396Z,22.80
2022-08-25T01:17:55.681Z,22.70
2022-08-25T01:20:41.811Z,22.70
2022-08-25T01:23:27.893Z,22.70
2022-08-25T01:26:21.156Z,22.70
2022-08-25T01:29:22.610Z,22.70
2022-08-25T01:32:12.077Z,22.60
2022-08-25T01:34:57.754Z,22.60
2022-08-25T01:37:43.868Z,22.60
2022-08-25T01:40:30.535Z,22.60
2022-08-25T01:43:21.761Z,22.60
2022-08-25T01:46:08.059Z,22.60
2022-08-25T01:48:54.026Z,22.60
2022-08-25T01:51:54.046Z,22.50
2022-08-25T01:54:39.677Z,22.50
2022-08-25T01:57:25.321Z,22.50
2022-08-25T02:00:14.153Z,22.50
2022-08-25T02:03:00.433Z,22.50
2022-08-25T02:05:48.062Z,22.40
2022-08-25T02:08:35.146Z,22.40
2022-08-25T02:11:22.070Z,22.40
2022-08-25T02:14:08.725Z,22.40
2022-08-25T02:16:55.224Z,22.40
2022-08-25T02:19:41.240Z,22.40
2022-08-25T02:22:27.105Z,22.70
2022-08-25T02:25:12.315Z,22.40
2022-08-25T02:27:58.404Z,22.40
2022-08-25T02:30:44.320Z,22.40
2022-08-25T02:33:30.134Z,22.40
2022-08-25T02:36:16.500Z,22.40
2022-08-25T02:39:04.144Z,22.40
2022-08-25T02:41:50.397Z,22.30
2022-08-25T02:44:36.110Z,22.30
2022-08-25T02:47:26.949Z,22.30
2022-08-25T02:50:12.993Z,22.30
2022-08-25T02:52:59.165Z,22.20
2022-08-25T02:55:45.617Z,22.20
2022-08-25T02:58:31.681Z,22.20
2022-08-25T03:01:18.126Z,22.20
2022-08-25T03:04:04.143Z,21.70
2022-08-25T03:06:50.064Z,22.10
2022-08-25T03:09:35.947Z,22.10
2022-08-25T03:12:23.773Z,22.10
2022-08-25T03:15:13.105Z,21.90
2022-08-25T03:17:59.968Z,22.00
2022-08-25T03:20:45.973Z,22.00
2022-08-25T03:23:31.908Z,22.00
2022-08-25T03:26:36.593Z,22.00
2022-08-25T03:29:24.962Z,22.00
2022-08-25T03:32:10.622Z,21.90
2022-08-25T03:34:56.737Z,21.90
2022-08-25T03:37:42.109Z,21.90
2022-08-25T03:40:28.567Z,21.80
2022-08-25T03:43:14.494Z,21.80
2022-08-25T03:46:00.343Z,21.80
2022-08-25T03:48:46.778Z,21.80
2022-08-25T03:51:35.979Z,21.70
2022-08-25T03:54:24.221Z,21.70
2022-08-25T03:57:10.594Z,21.60
2022-08-25T03:59:56.505Z,21.60
2022-08-25T04:02:42.507Z,21.60
2022-08-25T04:05:28.222Z,21.50
2022-08-25T04:08:14.229Z,21.60
2022-08-25T04:11:04.886Z,21.50
2022-08-25T04:13:52.344Z,21.60
2022-08-25T04:16:38.353Z,21.50
2022-08-25T04:19:23.962Z,21.50
2022-08-25T04:22:09.913Z,21.50
2022-08-25T04:24:55.512Z,21.50
2022-08-25T04:27:41.937Z,21.40
2022-08-25T04:30:28.010Z,21.40
2022-08-25T04:33:13.948Z,21.40
2022-08-25T04:35:59.994Z,21.40
2022-08-25T04:38:46.876Z,21.40
2022-08-25T04:41:32.721Z,21.40
2022-08-25T04:44:18.473Z,21.30
2022-08-25T04:47:04.735Z,21.40
2022-08-25T04:49:50.820Z,21.40
2022-08-25T04:52:37.598Z,21.40
2022-08-25T04:55:24.077Z,21.40
2022-08-25T04:58:14.694Z,21.40
2022-08-25T05:01:12.013Z,21.40
2022-08-25T05:04:00.665Z,21.50
2022-08-25T05:06:46.662Z,21.60
2022-08-25T05:09:33.067Z,21.70
2022-08-25T05:12:20.292Z,22.80
2022-08-25T05:15:26.120Z,22.90
2022-08-25T05:18:12.351Z,23.10
2022-08-25T05:21:03.405Z,23.30
2022-08-25T05:23:49.305Z,24.20
2022-08-25T05:26:36.715Z,24.70
2022-08-25T05:29:22.636Z,24.80
2022-08-25T05:32:08.574Z,24.90
2022-08-25T05:34:54.527Z,24.40
2022-08-25T05:37:40.423Z,24.70
2022-08-25T05:40:26.485Z,25.00
2022-08-25T05:43:14.656Z,25.50
2022-08-25T05:46:00.470Z,25.60
2022-08-25T05:48:46.481Z,26.40
2022-08-25T05:51:32.329Z,27.00
2022-08-25T05:54:18.369Z,27.00
2022-08-25T05:59:50.445Z,26.50
2022-08-25T06:02:48.369Z,26.20
2022-08-25T06:05:34.108Z,25.90
2022-08-25T06:08:19.929Z,25.50
2022-08-25T06:11:05.740Z,25.50
2022-08-25T06:13:51.626Z,25.30
2022-08-25T06:16:38.901Z,25.10
2022-08-25T06:19:24.505Z,25.40
2022-08-25T06:22:10.436Z,25.60
2022-08-25T06:24:56.026Z,25.80
2022-08-25T06:27:42.140Z,26.70
2022-08-25T06:33:15.629Z,26.90
2022-08-25T06:36:01.409Z,27.00
2022-08-25T06:38:48.117Z,27.30
2022-08-25T06:41:33.749Z,27.50
2022-08-25T06:44:24.013Z,27.40
2022-08-25T06:47:09.855Z,27.60
2022-08-25T06:49:55.656Z,27.80
2022-08-25T06:52:41.210Z,28.10
2022-08-25T06:55:27.193Z,28.10
2022-08-25T06:58:13.022Z,28.10
2022-08-25T07:01:20.640Z,28.70
2022-08-25T07:04:11.821Z,28.90
2022-08-25T07:06:59.388Z,28.80
2022-08-25T07:09:45.354Z,28.20
2022-08-25T07:12:32.204Z,29.10
2022-08-25T07:15:20.358Z,28.80
2022-08-25T07:18:08.168Z,29.20
2022-08-25T07:20:54.051Z,29.20
2022-08-25T07:23:41.947Z,29.10
2022-08-25T07:26:37.768Z,29.90
2022-08-25T07:29:32.835Z,29.90
2022-08-25T07:32:18.679Z,30.10
2022-08-25T07:35:15.384Z,30.10
2022-08-25T07:38:01.527Z,31.00
2022-08-25T07:43:43.197Z,30.00
2022-08-25T07:46:28.743Z,30.10
2022-08-25T07:49:16.937Z,31.00
2022-08-25T07:52:06.059Z,31.50
2022-08-25T07:54:54.228Z,30.60
2022-08-25T07:57:40.884Z,30.70
2022-08-25T08:00:29.915Z,30.80
2022-08-25T08:03:29.439Z,30.60
2022-08-25T08:06:24.322Z,30.80
2022-08-25T08:09:12.199Z,30.40
2022-08-25T08:11:57.696Z,30.40
2022-08-25T08:14:45.026Z,30.80
2022-08-25T08:17:32.036Z,31.00
2022-08-25T08:20:17.802Z,31.10
2022-08-25T08:23:09.099Z,31.40
2022-08-25T08:25:57.788Z,30.90
2022-08-25T08:28:43.604Z,30.90
2022-08-25T08:31:29.358Z,31.10
2022-08-25T08:34:16.119Z,31.40
2022-08-25T08:37:03.338Z,31.60
2022-08-25T08:39:49.214Z,31.90
2022-08-25T08:42:46.988Z,31.60
2022-08-25T08:45:44.371Z,31.80
2022-08-25T08:48:42.257Z,31.80
2022-08-25T08:51:39.851Z,31.90
2022-08-25T08:54:29.348Z,32.00
2022-08-25T08:57:25.581Z,32.70
2022-08-25T09:00:12.077Z,32.60
2022-08-25T09:03:07.057Z,32.20
2022-08-25T09:05:56.965Z,32.40
2022-08-25T09:08:45.024Z,32.40
2022-08-25T09:11:38.457Z,32.20
2022-08-25T09:14:42.615Z,31.80
2022-08-25T09:17:54.679Z,30.60
2022-08-25T09:21:05.857Z,31.20
2022-08-25T09:24:02.269Z,31.00
2022-08-25T09:27:07.568Z,31.70
2022-08-25T09:30:10.280Z,32.10
2022-08-25T09:33:02.154Z,31.70
2022-08-25T09:35:49.645Z,31.80
2022-08-25T09:38:35.628Z,31.80
2022-08-25T09:41:43.657Z,31.80
2022-08-25T09:44:40.285Z,31.10
2022-08-25T09:47:30.495Z,31.40
2022-08-25T09:50:20.129Z,31.50
2022-08-25T09:53:17.524Z,32.30
2022-08-25T09:56:07.524Z,31.50
2022-08-25T09:58:55.333Z,31.70
2022-08-25T10:01:59.064Z,31.10
2022-08-25T10:04:45.059Z,31.40
2022-08-25T10:07:39.612Z,31.40
2022-08-25T10:10:32.418Z,31.60
2022-08-25T10:13:22.954Z,32.00
2022-08-25T10:16:24.764Z,31.50
2022-08-25T10:19:29.182Z,31.60
2022-08-25T10:22:31.807Z,31.10
2022-08-25T10:25:26.843Z,31.00
2022-08-25T10:28:20.423Z,30.40
2022-08-25T10:31:56.081Z,30.60
2022-08-25T10:34:58.193Z,30.30
2022-08-25T10:38:29.436Z,30.40
2022-08-25T10:41:39.362Z,30.80
2022-08-25T10:44:58.272Z,29.80
2022-08-25T10:47:55.747Z,30.00
2022-08-25T10:50:45.483Z,30.90
2022-08-25T10:54:12.767Z,30.70
2022-08-25T10:57:08.150Z,30.20
2022-08-25T11:00:23.136Z,30.60
2022-08-25T11:03:26.839Z,30.20
2022-08-25T11:06:20.453Z,30.50
2022-08-25T11:09:08.743Z,30.50
2022-08-25T11:12:06.761Z,30.60
2022-08-25T11:14:57.423Z,30.60
2022-08-25T11:18:13.980Z,30.30
2022-08-25T11:21:11.933Z,30.20
2022-08-25T11:24:16.429Z,30.50
2022-08-25T11:27:09.466Z,30.50
2022-08-25T11:30:07.086Z,29.60
2022-08-25T11:32:54.470Z,30.30
2022-08-25T11:35:51.364Z,30.40
2022-08-25T11:39:15.398Z,30.50
2022-08-25T11:42:28.901Z,30.80
2022-08-25T11:45:36.790Z,30.80
2022-08-25T11:48:41.060Z,30.40
2022-08-25T11:51:41.834Z,30.90
2022-08-25T11:54:39.308Z,31.00
2022-08-25T11:57:27.321Z,31.50
2022-08-25T12:09:02.876Z,31.80
2022-08-25T12:11:53.809Z,31.50
2022-08-25T12:14:45.617Z,31.60
2022-08-25T12:17:39.439Z,30.70
2022-08-25T12:20:57.641Z,30.80
2022-08-25T12:24:03.957Z,30.50
2022-08-25T12:26:58.386Z,31.60
2022-08-25T12:29:50.391Z,30.70
2022-08-25T12:32:51.360Z,30.90
2022-08-25T12:36:01.533Z,31.00
2022-08-25T12:38:52.027Z,30.80
2022-08-25T12:41:59.989Z,30.80
2022-08-25T12:44:47.973Z,30.90
2022-08-25T12:47:36.015Z,30.80
2022-08-25T12:50:44.550Z,31.30
2022-08-25T12:53:49.710Z,32.00
2022-08-25T12:56:41.062Z,31.40
2022-08-25T12:59:43.685Z,31.40
2022-08-25T13:02:52.854Z,31.10
2022-08-25T13:05:50.611Z,31.50
2022-08-25T13:08:56.305Z,31.90
2022-08-25T13:11:43.291Z,30.80
2022-08-25T13:14:39.040Z,30.50
2022-08-25T13:17:27.434Z,30.60
2022-08-25T13:20:20.585Z,31.60
2022-08-25T13:25:54.506Z,31.40
2022-08-25T13:28:50.652Z,31.30
2022-08-25T13:31:38.729Z,31.00
2022-08-25T13:34:34.833Z,31.30
2022-08-25T13:37:31.346Z,31.30
2022-08-25T13:40:26.271Z,30.60
2022-08-25T13:43:15.036Z,31.90
2022-08-25T13:46:01.044Z,30.70
2022-08-25T13:51:37.002Z,31.20
2022-08-25T13:54:28.701Z,31.60
2022-08-25T13:57:22.317Z,31.50
2022-08-25T14:00:12.011Z,31.60
2022-08-25T14:05:45.518Z,31.10
2022-08-25T14:08:38.933Z,31.30
2022-08-25T14:11:47.792Z,31.60
2022-08-25T14:14:35.180Z,31.30
2022-08-25T14:17:38.586Z,31.30
2022-08-25T14:20:29.211Z,31.20
2022-08-25T14:23:22.544Z,31.20
2022-08-25T14:26:08.604Z,30.20
2022-08-25T14:28:54.368Z,30.80
2022-08-25T14:31:43.776Z,31.70
2022-08-25T14:34:36.794Z,31.30
2022-08-25T14:40:15.464Z,31.40
2022-08-25T14:43:01.000Z,32.20
2022-08-25T14:45:49.019Z,31.40
2022-08-25T14:48:41.311Z,31.40
2022-08-25T14:51:30.562Z,31.00
2022-08-25T14:54:18.694Z,31.40
2022-08-25T14:59:54.262Z,31.40
2022-08-25T15:02:43.724Z,31.40
2022-08-25T15:05:32.313Z,31.40
2022-08-25T15:11:32.284Z,31.40
2022-08-25T15:14:29.212Z,31.90
2022-08-25T15:17:19.590Z,31.10
2022-08-25T15:22:51.846Z,30.90
2022-08-25T15:25:38.205Z,31.40
2022-08-25T15:28:24.813Z,31.80
2022-08-25T15:31:13.030Z,31.20
2022-08-25T15:33:59.474Z,30.80
2022-08-25T15:36:45.813Z,30.00
2022-08-25T15:39:32.791Z,30.80
2022-08-25T15:42:19.476Z,31.20
2022-08-25T15:45:09.106Z,31.20
2022-08-25T15:47:54.590Z,31.00
2022-08-25T15:50:40.775Z,30.90
2022-08-25T15:53:27.968Z,31.10
2022-08-25T15:56:26.468Z,31.20
2022-08-25T15:59:13.545Z,30.60
2022-08-25T16:02:00.557Z,31.10
2022-08-25T16:04:46.185Z,31.50
2022-08-25T16:07:32.249Z,31.00
2022-08-25T16:10:17.994Z,31.10
2022-08-25T16:13:05.556Z,30.60
2022-08-25T16:18:40.496Z,31.40
2022-08-25T16:21:31.654Z,31.30
2022-08-25T16:24:18.572Z,31.30
2022-08-25T16:29:57.698Z,31.10
2022-08-25T16:32:43.624Z,30.80
2022-08-25T16:35:29.558Z,30.40
2022-08-25T16:38:15.411Z,29.90
2022-08-25T16:41:02.302Z,30.80
2022-08-25T16:43:51.081Z,30.60
2022-08-25T16:46:37.342Z,30.70
2022-08-25T16:49:24.367Z,30.40
2022-08-25T16:52:29.211Z,30.60
2022-08-25T16:55:16.976Z,30.70
2022-08-25T16:58:02.860Z,30.40
2022-08-25T17:00:51.156Z,30.40
2022-08-25T17:03:36.973Z,30.30
2022-08-25T17:06:25.241Z,30.30
2022-08-25T17:09:13.845Z,30.70
2022-08-25T17:14:57.306Z,30.10
2022-08-25T17:17:44.086Z,30.20
2022-08-25T17:20:30.887Z,30.20
2022-08-25T17:23:16.436Z,30.50
2022-08-25T17:26:03.305Z,30.40
2022-08-25T17:28:50.785Z,29.10
2022-08-25T17:37:16.687Z,30.00
2022-08-25T17:40:04.678Z,29.70
2022-08-25T17:42:51.669Z,29.70
2022-08-25T17:45:39.066Z,30.00
2022-08-25T17:48:26.234Z,30.00
2022-08-25T17:51:12.424Z,30.00
2022-08-25T17:53:58.338Z,29.50
2022-08-25T17:56:43.910Z,29.20
2022-08-25T17:59:30.310Z,29.40
2022-08-25T18:02:18.631Z,29.00
2022-08-25T18:05:06.331Z,29.00
2022-08-25T18:07:51.909Z,29.10
2022-08-25T18:10:38.599Z,28.40
2022-08-25T18:13:24.365Z,28.80
2022-08-25T18:16:11.780Z,29.00
2022-08-25T18:18:57.554Z,28.90
2022-08-25T18:21:43.672Z,29.10
2022-08-25T18:24:29.690Z,28.90
2022-08-25T18:30:07.536Z,28.30
2022-08-25T18:35:40.480Z,28.70
2022-08-25T18:38:45.895Z,28.80
2022-08-25T18:41:39.042Z,28.70
2022-08-25T18:44:25.821Z,28.50
2022-08-25T18:47:11.654Z,28.00
2022-08-25T18:52:50.384Z,28.10
2022-08-25T18:55:43.307Z,28.20
2022-08-25T19:01:16.826Z,27.60
2022-08-25T19:04:04.876Z,27.90
2022-08-25T19:06:51.880Z,27.90
2022-08-25T19:09:37.456Z,27.50
2022-08-25T19:12:23.471Z,28.10
2022-08-25T19:15:09.706Z,27.60
2022-08-25T19:17:56.669Z,27.20
2022-08-25T19:20:43.630Z,27.70
2022-08-25T19:23:29.470Z,27.40
2022-08-25T19:29:10.308Z,27.30
2022-08-25T19:31:57.333Z,27.60
2022-08-25T19:34:51.332Z,27.10
2022-08-25T19:40:26.823Z,26.90
2022-08-25T19:43:13.670Z,26.70
2022-08-25T19:46:03.760Z,26.90
2022-08-25T19:48:50.688Z,27.20
2022-08-25T19:51:40.243Z,26.90
2022-08-25T19:54:32.533Z,26.60
2022-08-25T19:57:28.372Z,27.10
2022-08-25T20:00:29.193Z,26.60
2022-08-25T20:03:15.048Z,26.80
2022-08-25T20:08:47.227Z,26.00
2022-08-25T20:11:44.733Z,26.60
2022-08-25T20:17:24.522Z,26.70
2022-08-25T20:20:13.152Z,26.60
2022-08-25T20:23:18.974Z,25.80
2022-08-25T20:26:04.578Z,26.30
2022-08-25T20:28:50.069Z,26.50
2022-08-25T20:31:36.091Z,26.00
2022-08-25T20:34:22.117Z,26.40
2022-08-25T20:37:08.980Z,26.10
2022-08-25T20:39:55.123Z,26.20
2022-08-25T20:42:43.388Z,26.20
2022-08-25T20:45:31.825Z,26.10
2022-08-25T20:51:09.899Z,26.50
2022-08-25T20:56:43.372Z,25.50
2022-08-25T20:59:29.332Z,26.30
2022-08-25T21:02:15.194Z,25.80
2022-08-25T21:05:01.644Z,26.00
2022-08-25T21:07:48.931Z,26.20
2022-08-25T21:10:34.642Z,26.00
2022-08-25T21:13:21.357Z,25.40
2022-08-25T21:16:09.054Z,26.30
2022-08-25T21:18:55.565Z,25.70
2022-08-25T21:24:29.312Z,25.80
2022-08-25T21:27:15.099Z,25.60
2022-08-25T21:30:00.653Z,25.90
2022-08-25T21:32:53.794Z,25.90
2022-08-25T21:35:41.363Z,25.80
2022-08-25T21:38:29.360Z,25.70
2022-08-25T21:41:21.242Z,25.70
2022-08-25T21:44:07.880Z,24.80
2022-08-25T21:46:53.820Z,25.60
2022-08-25T21:49:40.229Z,25.60
2022-08-25T21:52:25.675Z,25.50
2022-08-25T21:55:15.991Z,25.60
2022-08-25T21:58:02.117Z,25.50
2022-08-25T22:00:48.013Z,25.40
2022-08-25T22:03:35.074Z,25.50
2022-08-25T22:09:11.305Z,25.30
2022-08-25T22:11:57.092Z,25.20
2022-08-25T22:14:44.457Z,25.40
2022-08-25T22:17:30.261Z,24.80
2022-08-25T22:20:17.265Z,25.40
2022-08-25T22:23:03.273Z,25.30
2022-08-25T22:28:36.297Z,25.10
2022-08-25T22:31:22.610Z,25.40
2022-08-25T22:34:08.585Z,25.00
2022-08-25T22:36:59.374Z,24.90
2022-08-25T22:39:46.532Z,25.00
2022-08-25T22:42:32.694Z,25.00
2022-08-25T22:48:06.560Z,25.10
2022-08-25T22:50:52.257Z,25.00
2022-08-25T22:53:40.181Z,24.90
2022-08-25T22:56:32.984Z,24.90
2022-08-25T23:02:05.385Z,25.20
2022-08-25T23:04:52.537Z,24.90
2022-08-25T23:07:41.816Z,24.90
2022-08-25T23:10:27.807Z,24.80
2022-08-25T23:13:31.017Z,24.80
2022-08-25T23:16:18.963Z,24.60
2022-08-25T23:24:56.857Z,24.40
2022-08-25T23:33:18.707Z,24.30
2022-08-25T23:36:08.720Z,24.90
2022-08-25T23:41:42.589Z,24.40
2022-08-25T23:44:28.861Z,24.40
2022-08-25T23:47:15.075Z,24.30
2022-08-25T23:50:00.934Z,24.50
2022-08-25T23:52:46.989Z,24.30
2022-08-25T23:55:33.652Z,24.30
2022-08-25T23:58:19.697Z,24.30
